createdAt,value
2023-01-20T00:04:14.043Z,98100.32
2023-01-20T00:10:16.186Z,98096.60
2023-01-20T00:15:24.513Z,98093.05
2023-01-20T00:20:47.712Z,98101.41
2023-01-20T00:25:51.738Z,98098.94
2023-01-20T00:30:55.295Z,98105.42
2023-01-20T00:36:20.557Z,98112.77
2023-01-20T00:42:33.803Z,98117.27
2023-01-20T00:54:07.408Z,98097.50
2023-01-20T00:59:13.423Z,98120.16
2023-01-20T01:04:16.702Z,98141.95
2023-01-20T01:09:22.019Z,98124.54
2023-01-20T01:14:26.245Z,98142.23
2023-01-20T01:19:29.496Z,98123.47
2023-01-20T01:24:32.880Z,98132.13
2023-01-20T01:29:36.180Z,98127.14
2023-01-20T01:34:40.087Z,98138.49
2023-01-20T01:39:44.331Z,98127.23
2023-01-20T01:45:06.371Z,98130.92
2023-01-20T01:50:43.637Z,98132.10
2023-01-20T01:56:14.708Z,98127.63
2023-01-20T02:01:26.827Z,98142.08
2023-01-20T02:07:31.609Z,98151.77
2023-01-20T02:12:47.639Z,98156.90
2023-01-20T02:18:34.009Z,98166.98
2023-01-20T02:24:53.395Z,98158.79
2023-01-20T02:31:05.036Z,98161.73
2023-01-20T02:36:19.264Z,98164.19
2023-01-20T02:41:51.809Z,98172.63
2023-01-20T02:47:27.207Z,98182.67
2023-01-20T02:52:37.397Z,98185.10
2023-01-20T02:57:46.132Z,98190.52
2023-01-20T03:02:53.895Z,98183.86
2023-01-20T03:07:59.838Z,98182.53
2023-01-20T03:13:16.795Z,98190.98
2023-01-20T03:18:21.064Z,98193.90
2023-01-20T03:23:27.950Z,98186.61
2023-01-20T03:28:53.297Z,98183.95
2023-01-20T03:33:59.812Z,98188.75
2023-01-20T03:39:04.619Z,98192.52
2023-01-20T03:44:41.002Z,98194.91
2023-01-20T03:49:59.300Z,98191.85
2023-01-20T03:55:14.807Z,98189.41
2023-01-20T04:00:18.397Z,98187.67
2023-01-20T04:05:21.922Z,98189.99
2023-01-20T04:10:27.726Z,98196.58
2023-01-20T04:18:59.300Z,98214.33
2023-01-20T04:24:23.050Z,98222.20
2023-01-20T04:29:27.929Z,98227.84
2023-01-20T04:34:31.272Z,98231.30
2023-01-20T04:39:34.589Z,98234.09
2023-01-20T04:44:38.290Z,98238.27
2023-01-20T04:49:41.655Z,98253.27
2023-01-20T04:54:45.215Z,98257.28
2023-01-20T04:59:48.472Z,98263.13
2023-01-20T05:04:51.697Z,98276.55
2023-01-20T05:09:54.963Z,98278.55
2023-01-20T05:14:58.215Z,98278.22
2023-01-20T05:20:01.513Z,98277.33
2023-01-20T05:25:05.635Z,98278.09
2023-01-20T05:30:12.370Z,98279.77
2023-01-20T05:35:16.152Z,98285.77
2023-01-20T05:40:19.749Z,98290.39
2023-01-20T05:45:23.767Z,98298.16
2023-01-20T05:50:29.795Z,98304.01
2023-01-20T05:55:33.660Z,98307.09
2023-01-20T06:00:36.939Z,98306.80
2023-01-20T06:05:40.431Z,98311.79
2023-01-20T06:10:43.867Z,98324.61
2023-01-20T06:15:54.472Z,98328.88
2023-01-20T06:20:59.806Z,98327.80
2023-01-20T06:26:06.884Z,98335.69
2023-01-20T06:31:15.439Z,98342.11
2023-01-20T06:36:18.771Z,98340.23
2023-01-20T06:41:22.293Z,98340.50
2023-01-20T06:46:25.683Z,98348.19
2023-01-20T06:51:30.721Z,98350.85
2023-01-20T06:56:35.238Z,98353.60
2023-01-20T07:01:39.182Z,98356.38
2023-01-20T07:06:43.640Z,98358.98
2023-01-20T07:11:48.672Z,98359.41
2023-01-20T07:16:52.113Z,98361.43
2023-01-20T07:21:55.455Z,98358.45
2023-01-20T07:26:59.275Z,98357.65
2023-01-20T07:33:21.011Z,98365.73
2023-01-20T07:38:25.011Z,98373.88
2023-01-20T07:43:29.105Z,98379.25
2023-01-20T07:48:34.014Z,98385.55
2023-01-20T07:53:39.891Z,98392.29
2023-01-20T07:58:45.592Z,98387.98
2023-01-20T08:03:50.408Z,98397.35
2023-01-20T08:09:26.266Z,98396.16
2023-01-20T08:14:42.787Z,98401.98
2023-01-20T08:19:47.622Z,98412.65
2023-01-20T08:24:51.215Z,98421.84
2023-01-20T08:29:55.760Z,98411.80
2023-01-20T08:34:59.119Z,98411.91
2023-01-20T08:40:02.498Z,98419.71
2023-01-20T08:45:10.874Z,98418.50
2023-01-20T08:50:14.923Z,98422.33
2023-01-20T08:55:18.221Z,98422.92
2023-01-20T09:00:21.915Z,98425.10
2023-01-20T09:05:25.259Z,98426.58
2023-01-20T09:10:28.768Z,98428.98
2023-01-20T09:15:32.105Z,98436.09
2023-01-20T09:20:36.060Z,98442.50
2023-01-20T09:25:39.374Z,98444.06
2023-01-20T09:30:43.917Z,98437.94
2023-01-20T09:35:58.363Z,98438.96
2023-01-20T09:41:26.423Z,98438.93
2023-01-20T09:47:09.348Z,98430.81
2023-01-20T09:52:51.999Z,98425.88
2023-01-20T09:58:15.999Z,98429.30
2023-01-20T10:03:37.288Z,98429.21
2023-01-20T10:09:37.102Z,98422.16
2023-01-20T10:16:00.365Z,98418.60
2023-01-20T10:21:49.310Z,98424.23
2023-01-20T10:27:03.103Z,98426.27
2023-01-20T10:32:24.331Z,98420.56
2023-01-20T10:37:28.530Z,98420.25
2023-01-20T10:43:13.046Z,98417.05
2023-01-20T10:49:39.177Z,98419.56
2023-01-20T10:56:02.032Z,98411.92
2023-01-20T11:01:13.854Z,98407.91
2023-01-20T11:06:25.576Z,98406.13
2023-01-20T11:12:29.566Z,98401.83
2023-01-20T11:18:54.996Z,98395.77
2023-01-20T11:25:33.115Z,98398.33
2023-01-20T11:32:37.950Z,98391.13
2023-01-20T11:39:23.080Z,98372.88
2023-01-20T11:46:17.538Z,98368.15
2023-01-20T11:52:14.685Z,98361.41
2023-01-20T11:57:27.394Z,98353.67
2023-01-20T12:02:34.090Z,98351.55
2023-01-20T12:09:01.006Z,98354.92
2023-01-20T12:15:33.953Z,98361.45
2023-01-20T12:22:18.865Z,98365.05
2023-01-20T12:29:15.763Z,98366.14
2023-01-20T12:35:11.884Z,98367.83
2023-01-20T12:41:31.669Z,98376.39
2023-01-20T12:48:01.823Z,98380.27
2023-01-20T13:01:47.415Z,98397.25
2023-01-20T13:07:59.861Z,98402.23
2023-01-20T13:14:55.892Z,98416.41
2023-01-20T13:22:08.002Z,98407.89
2023-01-20T13:28:36.748Z,98409.30
2023-01-20T13:34:48.256Z,98409.96
2023-01-20T13:41:09.834Z,98408.92
2023-01-20T13:47:11.118Z,98409.70
2023-01-20T13:54:27.475Z,98409.10
2023-01-20T14:00:21.631Z,98409.30
2023-01-20T14:06:33.660Z,98417.98
2023-01-20T14:12:18.934Z,98415.19
2023-01-20T14:17:28.412Z,98413.65
2023-01-20T14:22:41.725Z,98415.72
2023-01-20T14:28:39.233Z,98419.73
2023-01-20T14:34:57.668Z,98419.59
2023-01-20T14:41:13.069Z,98421.44
2023-01-20T14:47:14.996Z,98432.93
2023-01-20T14:53:21.921Z,98439.21
2023-01-20T14:59:50.331Z,98439.94
2023-01-20T15:06:17.850Z,98437.41
2023-01-20T15:11:43.157Z,98441.27
2023-01-20T23:25:10.587Z,98365.39
2023-01-20T23:31:16.878Z,98364.70
2023-01-20T23:46:40.703Z,98360.98
2023-01-20T23:51:57.842Z,98360.43
2023-01-20T23:57:32.180Z,98361.37
